sensor_id;sensor_type;location;lat;lon;timestamp;pressure;altitude;pressure_sealevel;temperature;humidity
19600;BME280;9947;57.722;12.012;2023-12-04T00:01:48;101601.22;;;-6.84;100.00
19600;BME280;9947;57.722;12.012;2023-12-04T00:07:11;101593.34;;;-6.79;100.00
19600;BME280;9947;57.722;12.012;2023-12-04T00:09:39;101595.03;;;-6.91;100.00
19600;BME280;9947;57.722;12.012;2023-12-04T00:15:07;101594.16;;;-6.91;100.00
19600;BME280;9947;57.722;12.012;2023-12-04T00:17:35;101590.63;;;-6.93;100.00
19600;BME280;9947;57.722;12.012;2023-12-04T00:20:09;101594.16;;;-6.91;100.00
19600;BME280;9947;57.722;12.012;2023-12-04T00:22:38;101595.06;;;-6.88;100.00
19600;BME280;9947;57.722;12.012;2023-12-04T00:25:07;101600.28;;;-6.89;100.00
19600;BME280;9947;57.722;12.012;2023-12-04T00:27:33;101598.56;;;-6.87;100.00
19600;BME280;9947;57.722;12.012;2023-12-04T00:30:03;101600.34;;;-6.81;100.00
19600;BME280;9947;57.722;12.012;2023-12-04T00:32:33;101596.06;;;-6.70;100.00
19600;BME280;9947;57.722;12.012;2023-12-04T00:35:02;101600.47;;;-6.69;100.00
19600;BME280;9947;57.722;12.012;2023-12-04T00:37:29;101594.34;;;-6.67;100.00
19600;BME280;9947;57.722;12.012;2023-12-04T00:39:58;101594.34;;;-6.64;100.00
19600;BME280;9947;57.722;12.012;2023-12-04T00:42:25;101582.91;;;-6.73;100.00
19600;BME280;9947;57.722;12.012;2023-12-04T00:44:52;101581.09;;;-6.79;100.00
19600;BME280;9947;57.722;12.012;2023-12-04T00:47:21;101580.28;;;-6.73;100.00
19600;BME280;9947;57.722;12.012;2023-12-04T00:52:14;101580.28;;;-6.73;100.00
19600;BME280;9947;57.722;12.012;2023-12-04T00:54:41;101575.06;;;-6.67;100.00
19600;BME280;9947;57.722;12.012;2023-12-04T00:57:10;101581.19;;;-6.68;100.00
19600;BME280;9947;57.722;12.012;2023-12-04T00:59:37;101574.19;;;-6.68;100.00
19600;BME280;9947;57.722;12.012;2023-12-04T01:02:06;101574.09;;;-6.77;100.00
19600;BME280;9947;57.722;12.012;2023-12-04T01:04:33;101580.25;;;-6.76;100.00
19600;BME280;9947;57.722;12.012;2023-12-04T01:07:01;101582.81;;;-6.82;100.00
19600;BME280;9947;57.722;12.012;2023-12-04T01:09:28;101581.00;;;-6.94;100.00
19600;BME280;9947;57.722;12.012;2023-12-04T01:11:56;101573.16;;;-6.87;100.00
19600;BME280;9947;57.722;12.012;2023-12-04T01:14:24;101574.91;;;-6.87;100.00
19600;BME280;9947;57.722;12.012;2023-12-04T01:16:52;101571.44;;;-6.81;100.00
19600;BME280;9947;57.722;12.012;2023-12-04T01:19:19;101561.88;;;-6.75;100.00
19600;BME280;9947;57.722;12.012;2023-12-04T01:21:48;101563.63;;;-6.71;100.00
19600;BME280;9947;57.722;12.012;2023-12-04T01:24:16;101575.97;;;-6.62;100.00
19600;BME280;9947;57.722;12.012;2023-12-04T01:26:46;101575.09;;;-6.61;100.00
19600;BME280;9947;57.722;12.012;2023-12-04T01:29:15;101569.88;;;-6.54;100.00
19600;BME280;9947;57.722;12.012;2023-12-04T01:31:43;101571.59;;;-6.56;100.00
19600;BME280;9947;57.722;12.012;2023-12-04T01:34:12;101569.94;;;-6.44;100.00
19600;BME280;9947;57.722;12.012;2023-12-04T01:36:41;101573.47;;;-6.42;100.00
19600;BME280;9947;57.722;12.012;2023-12-04T01:39:07;101566.44;;;-6.42;100.00
19600;BME280;9947;57.722;12.012;2023-12-04T01:41:34;101569.13;;;-6.33;100.00
19600;BME280;9947;57.722;12.012;2023-12-04T01:44:02;101564.63;;;-6.52;100.00
19600;BME280;9947;57.722;12.012;2023-12-04T01:46:40;101572.56;;;-6.47;100.00
19600;BME280;9947;57.722;12.012;2023-12-04T01:49:23;101571.72;;;-6.43;100.00
19600;BME280;9947;57.722;12.012;2023-12-04T01:51:53;101562.06;;;-6.43;100.00
19600;BME280;9947;57.722;12.012;2023-12-04T01:54:22;101552.41;;;-6.44;100.00
19600;BME280;9947;57.722;12.012;2023-12-04T01:56:54;101546.28;;;-6.41;100.00
19600;BME280;9947;57.722;12.012;2023-12-04T01:59:22;101543.66;;;-6.44;100.00
19600;BME280;9947;57.722;12.012;2023-12-04T02:04:14;101534.03;;;-6.38;100.00
19600;BME280;9947;57.722;12.012;2023-12-04T02:09:09;101530.63;;;-6.18;100.00
19600;BME280;9947;57.722;12.012;2023-12-04T02:11:37;101529.75;;;-6.08;100.00
19600;BME280;9947;57.722;12.012;2023-12-04T02:14:05;101525.44;;;-5.97;100.00
19600;BME280;9947;57.722;12.012;2023-12-04T02:16:37;101521.00;;;-6.07;100.00
19600;BME280;9947;57.722;12.012;2023-12-04T02:19:08;101513.09;;;-6.10;100.00
19600;BME280;9947;57.722;12.012;2023-12-04T02:21:38;101513.09;;;-6.10;100.00
19600;BME280;9947;57.722;12.012;2023-12-04T02:24:07;101517.47;;;-6.11;100.00
19600;BME280;9947;57.722;12.012;2023-12-04T02:26:44;101518.38;;;-6.04;100.00
19600;BME280;9947;57.722;12.012;2023-12-04T02:29:23;101518.41;;;-5.97;100.00
19600;BME280;9947;57.722;12.012;2023-12-04T02:31:55;101510.47;;;-6.04;100.00
19600;BME280;9947;57.722;12.012;2023-12-04T02:34:27;101509.59;;;-6.06;100.00
19600;BME280;9947;57.722;12.012;2023-12-04T02:36:57;101505.19;;;-6.07;100.00
19600;BME280;9947;57.722;12.012;2023-12-04T02:39:43;101506.94;;;-6.15;100.00
19600;BME280;9947;57.722;12.012;2023-12-04T02:47:15;101508.59;;;-6.33;100.00
19600;BME280;9947;57.722;12.012;2023-12-04T02:49:43;101507.72;;;-6.35;100.00
19600;BME280;9947;57.722;12.012;2023-12-04T02:52:10;101510.38;;;-6.32;100.00
19600;BME280;9947;57.722;12.012;2023-12-04T02:54:38;101504.22;;;-6.38;100.00
19600;BME280;9947;57.722;12.012;2023-12-04T02:57:08;101512.97;;;-6.44;100.00
19600;BME280;9947;57.722;12.012;2023-12-04T02:59:35;101510.31;;;-6.45;100.00
19600;BME280;9947;57.722;12.012;2023-12-04T03:02:03;101510.31;;;-6.47;100.00
19600;BME280;9947;57.722;12.012;2023-12-04T03:04:32;101511.22;;;-6.42;100.00
19600;BME280;9947;57.722;12.012;2023-12-04T03:07:05;101503.31;;;-6.43;100.00
19600;BME280;9947;57.722;12.012;2023-12-04T03:09:32;101495.41;;;-6.43;100.00
19600;BME280;9947;57.722;12.012;2023-12-04T03:12:04;101502.44;;;-6.39;100.00
19600;BME280;9947;57.722;12.012;2023-12-04T03:14:33;101503.38;;;-6.25;100.00
19600;BME280;9947;57.722;12.012;2023-12-04T03:16:59;101510.38;;;-6.27;100.00
19600;BME280;9947;57.722;12.012;2023-12-04T03:19:28;101516.47;;;-6.39;100.00
19600;BME280;9947;57.722;12.012;2023-12-04T03:24:20;101505.97;;;-6.39;100.00
19600;BME280;9947;57.722;12.012;2023-12-04T03:29:14;101502.47;;;-6.32;100.00
19600;BME280;9947;57.722;12.012;2023-12-04T03:31:43;101505.09;;;-6.33;100.00
19600;BME280;9947;57.722;12.012;2023-12-04T03:34:11;101498.09;;;-6.27;100.00
19600;BME280;9947;57.722;12.012;2023-12-04T03:36:38;101503.41;;;-6.24;100.00
19600;BME280;9947;57.722;12.012;2023-12-04T03:39:05;101504.28;;;-6.22;100.00
19600;BME280;9947;57.722;12.012;2023-12-04T03:41:33;101504.28;;;-6.22;100.00
19600;BME280;9947;57.722;12.012;2023-12-04T03:44:03;101500.75;;;-6.25;100.00
19600;BME280;9947;57.722;12.012;2023-12-04T03:46:35;101504.28;;;-6.22;100.00
19600;BME280;9947;57.722;12.012;2023-12-04T03:49:05;101498.09;;;-6.28;100.00
19600;BME280;9947;57.722;12.012;2023-12-04T03:51:32;101498.09;;;-6.30;100.00
19600;BME280;9947;57.722;12.012;2023-12-04T03:54:00;101494.59;;;-6.27;100.00
19600;BME280;9947;57.722;12.012;2023-12-04T03:56:27;101494.63;;;-6.24;100.00
19600;BME280;9947;57.722;12.012;2023-12-04T03:58:57;101491.09;;;-6.28;100.00
19600;BME280;9947;57.722;12.012;2023-12-04T04:01:24;101488.47;;;-6.26;100.00
19600;BME280;9947;57.722;12.012;2023-12-04T04:03:51;101492.88;;;-6.22;100.00
19600;BME280;9947;57.722;12.012;2023-12-04T04:06:24;101485.81;;;-6.31;100.00
19600;BME280;9947;57.722;12.012;2023-12-04T04:08:53;101488.50;;;-6.23;100.00
19600;BME280;9947;57.722;12.012;2023-12-04T04:11:21;101484.94;;;-6.28;100.00
19600;BME280;9947;57.722;12.012;2023-12-04T04:13:49;101477.91;;;-6.34;100.00
19600;BME280;9947;57.722;12.012;2023-12-04T04:16:16;101483.16;;;-6.38;100.00
19600;BME280;9947;57.722;12.012;2023-12-04T04:18:43;101478.78;;;-6.35;100.00
19600;BME280;9947;57.722;12.012;2023-12-04T04:21:10;101478.78;;;-6.33;100.00
19600;BME280;9947;57.722;12.012;2023-12-04T04:23:40;101474.41;;;-6.33;100.00
19600;BME280;9947;57.722;12.012;2023-12-04T04:26:07;101480.56;;;-6.26;100.00
19600;BME280;9947;57.722;12.012;2023-12-04T04:28:34;101478.84;;;-6.24;100.00
19600;BME280;9947;57.722;12.012;2023-12-04T04:31:03;101482.38;;;-6.19;100.00
19600;BME280;9947;57.722;12.012;2023-12-04T04:33:30;101488.50;;;-6.23;100.00
19600;BME280;9947;57.722;12.012;2023-12-04T04:35:58;101476.22;;;-6.19;100.00
19600;BME280;9947;57.722;12.012;2023-12-04T04:38:26;101481.50;;;-6.16;100.00
19600;BME280;9947;57.722;12.012;2023-12-04T04:40:59;101485.88;;;-6.17;100.00
19600;BME280;9947;57.722;12.012;2023-12-04T04:43:27;101489.41;;;-6.06;100.00
19600;BME280;9947;57.722;12.012;2023-12-04T04:45:55;101480.63;;;-6.12;100.00
19600;BME280;9947;57.722;12.012;2023-12-04T04:48:22;101485.00;;;-6.13;100.00
19600;BME280;9947;57.722;12.012;2023-12-04T04:50:52;101482.38;;;-6.17;100.00
19600;BME280;9947;57.722;12.012;2023-12-04T04:53:19;101489.38;;;-6.18;100.00
19600;BME280;9947;57.722;12.012;2023-12-04T04:55:47;101492.88;;;-6.22;100.00
19600;BME280;9947;57.722;12.012;2023-12-04T04:58:17;101496.41;;;-6.18;100.00
19600;BME280;9947;57.722;12.012;2023-12-04T05:00:47;101512.19;;;-6.20;100.00
19600;BME280;9947;57.722;12.012;2023-12-04T05:03:14;101510.44;;;-6.19;100.00
19600;BME280;9947;57.722;12.012;2023-12-04T05:05:42;101510.44;;;-6.16;100.00
19600;BME280;9947;57.722;12.012;2023-12-04T05:08:09;101517.47;;;-6.11;100.00
19600;BME280;9947;57.722;12.012;2023-12-04T05:10:38;101518.38;;;-6.03;100.00
19600;BME280;9947;57.722;12.012;2023-12-04T05:13:05;101509.59;;;-6.11;100.00
19600;BME280;9947;57.722;12.012;2023-12-04T05:15:37;101517.50;;;-6.03;100.00
19600;BME280;9947;57.722;12.012;2023-12-04T05:18:05;101508.72;;;-6.01;100.00
19600;BME280;9947;57.722;12.012;2023-12-04T05:20:32;101508.72;;;-6.08;100.00
19600;BME280;9947;57.722;12.012;2023-12-04T05:22:59;101510.47;;;-6.00;100.00
19600;BME280;9947;57.722;12.012;2023-12-04T05:25:28;101510.53;;;-5.92;100.00
19600;BME280;9947;57.722;12.012;2023-12-04T05:27:55;101511.41;;;-5.96;100.00
19600;BME280;9947;57.722;12.012;2023-12-04T05:30:24;101512.22;;;-6.03;100.00
19600;BME280;9947;57.722;12.012;2023-12-04T05:32:53;101510.47;;;-6.03;100.00
19600;BME280;9947;57.722;12.012;2023-12-04T05:35:21;101515.78;;;-5.94;100.00
19600;BME280;9947;57.722;12.012;2023-12-04T05:37:50;101515.78;;;-5.86;100.00
19600;BME280;9947;57.722;12.012;2023-12-04T05:40:22;101513.13;;;-5.83;100.00
19600;BME280;9947;57.722;12.012;2023-12-04T05:42:49;101510.50;;;-5.87;100.00
19600;BME280;9947;57.722;12.012;2023-12-04T05:45:16;101516.66;;;-5.73;100.00
19600;BME280;9947;57.722;12.012;2023-12-04T05:47:44;101517.53;;;-5.83;100.00
19600;BME280;9947;57.722;12.012;2023-12-04T05:50:17;101513.16;;;-5.80;100.00
19600;BME280;9947;57.722;12.012;2023-12-04T05:52:55;101515.75;;;-5.89;100.00
19600;BME280;9947;57.722;12.012;2023-12-04T05:55:25;101517.53;;;-5.83;100.00
19600;BME280;9947;57.722;12.012;2023-12-04T05:57:56;101519.31;;;-5.95;100.00
19600;BME280;9947;57.722;12.012;2023-12-04T06:00:22;101514.03;;;-5.95;100.00
19600;BME280;9947;57.722;12.012;2023-12-04T06:02:54;101525.44;;;-5.91;100.00
19600;BME280;9947;57.722;12.012;2023-12-04T06:05:24;101525.44;;;-5.93;100.00
19600;BME280;9947;57.722;12.012;2023-12-04T06:07:52;101524.56;;;-5.92;100.00
19600;BME280;9947;57.722;12.012;2023-12-04T06:10:19;101524.56;;;-5.96;100.00
19600;BME280;9947;57.722;12.012;2023-12-04T06:12:50;101529.81;;;-5.85;100.00
19600;BME280;9947;57.722;12.012;2023-12-04T06:15:18;101531.59;;;-5.91;100.00
19600;BME280;9947;57.722;12.012;2023-12-04T06:17:47;101531.59;;;-5.92;100.00
19600;BME280;9947;57.722;12.012;2023-12-04T06:20:15;101532.44;;;-5.88;100.00
19600;BME280;9947;57.722;12.012;2023-12-04T06:22:45;101534.16;;;-6.00;100.00
19600;BME280;9947;57.722;12.012;2023-12-04T06:25:16;101537.72;;;-5.98;100.00
19600;BME280;9947;57.722;12.012;2023-12-04T06:27:45;101535.03;;;-6.01;100.00
19600;BME280;9947;57.722;12.012;2023-12-04T06:30:14;101534.16;;;-6.01;100.00
19600;BME280;9947;57.722;12.012;2023-12-04T06:32:41;101540.34;;;-5.98;100.00
19600;BME280;9947;57.722;12.012;2023-12-04T06:35:10;101542.09;;;-5.98;100.00
19600;BME280;9947;57.722;12.012;2023-12-04T06:37:38;101537.69;;;-6.02;100.00
19600;BME280;9947;57.722;12.012;2023-12-04T06:40:09;101537.66;;;-6.04;100.00
19600;BME280;9947;57.722;12.012;2023-12-04T06:42:38;101532.41;;;-6.05;100.00
19600;BME280;9947;57.722;12.012;2023-12-04T06:45:07;101540.34;;;-5.98;100.00
19600;BME280;9947;57.722;12.012;2023-12-04T06:47:36;101537.72;;;-5.96;100.00
19600;BME280;9947;57.722;12.012;2023-12-04T06:50:06;101549.13;;;-5.93;100.00
19600;BME280;9947;57.722;12.012;2023-12-04T06:52:34;101549.13;;;-5.83;100.00
19600;BME280;9947;57.722;12.012;2023-12-04T06:55:02;101543.84;;;-5.88;100.00
19600;BME280;9947;57.722;12.012;2023-12-04T06:57:38;101543.00;;;-5.92;100.00
19600;BME280;9947;57.722;12.012;2023-12-04T07:00:08;101539.47;;;-5.97;100.00
19600;BME280;9947;57.722;12.012;2023-12-04T07:02:38;101545.63;;;-5.90;100.00
19600;BME280;9947;57.722;12.012;2023-12-04T07:05:06;101547.38;;;-5.92;100.00
19600;BME280;9947;57.722;12.012;2023-12-04T07:07:35;101536.84;;;-5.89;100.00
19600;BME280;9947;57.722;12.012;2023-12-04T07:10:04;101550.00;;;-5.86;100.00
19600;BME280;9947;57.722;12.012;2023-12-04T07:12:32;101546.47;;;-5.88;100.00
19600;BME280;9947;57.722;12.012;2023-12-04T07:15:03;101550.00;;;-5.86;100.00
19600;BME280;9947;57.722;12.012;2023-12-04T07:17:31;101551.75;;;-5.88;100.00
19600;BME280;9947;57.722;12.012;2023-12-04T07:19:58;101542.13;;;-5.91;100.00
19600;BME280;9947;57.722;12.012;2023-12-04T07:22:26;101549.16;;;-5.89;100.00
19600;BME280;9947;57.722;12.012;2023-12-04T07:24:55;101548.25;;;-5.82;100.00
19600;BME280;9947;57.722;12.012;2023-12-04T07:27:24;101550.00;;;-5.84;100.00
19600;BME280;9947;57.722;12.012;2023-12-04T07:29:55;101548.25;;;-5.82;100.00
19600;BME280;9947;57.722;12.012;2023-12-04T07:32:24;101553.50;;;-5.82;100.00
19600;BME280;9947;57.722;12.012;2023-12-04T07:34:50;101557.03;;;-5.73;100.00
19600;BME280;9947;57.722;12.012;2023-12-04T07:37:18;101548.25;;;-5.78;100.00
19600;BME280;9947;57.722;12.012;2023-12-04T07:39:47;101546.50;;;-5.83;100.00
19600;BME280;9947;57.722;12.012;2023-12-04T07:42:14;101546.50;;;-5.77;100.00
19600;BME280;9947;57.722;12.012;2023-12-04T07:44:42;101537.72;;;-5.79;100.00
19600;BME280;9947;57.722;12.012;2023-12-04T07:47:21;101540.41;;;-5.70;100.00
19600;BME280;9947;57.722;12.012;2023-12-04T07:49:53;101535.09;;;-5.78;100.00
19600;BME280;9947;57.722;12.012;2023-12-04T07:52:26;101528.06;;;-5.77;100.00
19600;BME280;9947;57.722;12.012;2023-12-04T07:54:55;101534.22;;;-5.78;100.00
19600;BME280;9947;57.722;12.012;2023-12-04T07:57:23;101531.59;;;-5.75;100.00
19600;BME280;9947;57.722;12.012;2023-12-04T07:59:50;101536.00;;;-5.71;100.00
19600;BME280;9947;57.722;12.012;2023-12-04T08:02:18;101536.88;;;-5.72;100.00
19600;BME280;9947;57.722;12.012;2023-12-04T08:04:45;101526.34;;;-5.65;100.00
19600;BME280;9947;57.722;12.012;2023-12-04T08:07:15;101523.72;;;-5.68;100.00
19600;BME280;9947;57.722;12.012;2023-12-04T08:09:44;101524.59;;;-5.67;100.00
19600;BME280;9947;57.722;12.012;2023-12-04T08:12:11;101528.13;;;-5.61;100.00
19600;BME280;9947;57.722;12.012;2023-12-04T08:14:38;101515.81;;;-5.69;100.00
19600;BME280;9947;57.722;12.012;2023-12-04T08:17:06;101523.72;;;-5.63;100.00
19600;BME280;9947;57.722;12.012;2023-12-04T08:19:33;101515.81;;;-5.62;100.00
19600;BME280;9947;57.722;12.012;2023-12-04T08:22:03;101516.69;;;-5.69;100.00
19600;BME280;9947;57.722;12.012;2023-12-04T08:24:32;101514.91;;;-5.74;100.00
19600;BME280;9947;57.722;12.012;2023-12-04T08:26:59;101515.84;;;-5.60;100.00
19600;BME280;9947;57.722;12.012;2023-12-04T08:29:27;101519.34;;;-5.58;100.00
19600;BME280;9947;57.722;12.012;2023-12-04T08:31:57;101514.06;;;-5.55;100.00
19600;BME280;9947;57.722;12.012;2023-12-04T08:34:24;101515.88;;;-5.39;100.00
19600;BME280;9947;57.722;12.012;2023-12-04T08:36:51;101517.59;;;-5.47;100.00
19600;BME280;9947;57.722;12.012;2023-12-04T08:39:20;101513.22;;;-5.40;100.00
19600;BME280;9947;57.722;12.012;2023-12-04T08:41:49;101520.25;;;-5.25;100.00
19600;BME280;9947;57.722;12.012;2023-12-04T08:44:19;101515.88;;;-5.11;100.00
19600;BME280;9947;57.722;12.012;2023-12-04T08:46:47;101522.91;;;-5.07;100.00
19600;BME280;9947;57.722;12.012;2023-12-04T08:49:16;101522.91;;;-4.93;100.00
19600;BME280;9947;57.722;12.012;2023-12-04T08:51:43;101522.88;;;-4.80;100.00
19600;BME280;9947;57.722;12.012;2023-12-04T08:54:10;101519.31;;;-4.70;100.00
19600;BME280;9947;57.722;12.012;2023-12-04T08:56:39;101514.03;;;-4.59;100.00
19600;BME280;9947;57.722;12.012;2023-12-04T08:59:10;101509.63;;;-4.51;100.00
19600;BME280;9947;57.722;12.012;2023-12-04T09:01:38;101517.50;;;-4.34;100.00
19600;BME280;9947;57.722;12.012;2023-12-04T09:04:09;101512.25;;;-4.40;100.00
19600;BME280;9947;57.722;12.012;2023-12-04T09:06:39;101509.56;;;-4.29;100.00
19600;BME280;9947;57.722;12.012;2023-12-04T09:09:10;101506.09;;;-4.41;100.00
19600;BME280;9947;57.722;12.012;2023-12-04T09:11:40;101504.25;;;-4.23;100.00
19600;BME280;9947;57.722;12.012;2023-12-04T09:14:10;101494.56;;;-4.24;100.00
19600;BME280;9947;57.722;12.012;2023-12-04T09:16:38;101495.56;;;-4.59;100.00
19600;BME280;9947;57.722;12.012;2023-12-04T09:19:19;101487.66;;;-4.56;100.00
19600;BME280;9947;57.722;12.012;2023-12-04T09:22:00;101490.22;;;-4.38;100.00
19600;BME280;9947;57.722;12.012;2023-12-04T09:24:29;101485.84;;;-4.40;100.00
19600;BME280;9947;57.722;12.012;2023-12-04T09:26:56;101490.22;;;-4.44;100.00
19600;BME280;9947;57.722;12.012;2023-12-04T09:29:25;101491.09;;;-4.34;100.00
19600;BME280;9947;57.722;12.012;2023-12-04T09:31:55;101490.22;;;-4.33;100.00
19600;BME280;9947;57.722;12.012;2023-12-04T09:34:25;101487.63;;;-4.51;100.00
19600;BME280;9947;57.722;12.012;2023-12-04T09:36:57;101487.63;;;-4.42;100.00
19600;BME280;9947;57.722;12.012;2023-12-04T09:39:24;101477.91;;;-4.45;100.00
19600;BME280;9947;57.722;12.012;2023-12-04T09:41:55;101477.06;;;-4.42;100.00
19600;BME280;9947;57.722;12.012;2023-12-04T09:44:29;101479.69;;;-4.44;100.00
19600;BME280;9947;57.722;12.012;2023-12-04T09:46:58;101479.75;;;-4.60;100.00
19600;BME280;9947;57.722;12.012;2023-12-04T09:49:28;101486.75;;;-4.52;100.00
19600;BME280;9947;57.722;12.012;2023-12-04T09:51:57;101484.06;;;-4.37;100.00
19600;BME280;9947;57.722;12.012;2023-12-04T09:54:35;101472.63;;;-4.36;100.00
19600;BME280;9947;57.722;12.012;2023-12-04T09:57:06;101475.25;;;-4.32;100.00
19600;BME280;9947;57.722;12.012;2023-12-04T09:59:41;101475.28;;;-4.46;100.00
19600;BME280;9947;57.722;12.012;2023-12-04T10:02:10;101473.53;;;-4.38;100.00
19600;BME280;9947;57.722;12.012;2023-12-04T10:04:38;101484.97;;;-4.47;100.00
19600;BME280;9947;57.722;12.012;2023-12-04T10:07:06;101482.31;;;-4.36;100.00
19600;BME280;9947;57.722;12.012;2023-12-04T10:09:33;101483.16;;;-4.32;100.00
19600;BME280;9947;57.722;12.012;2023-12-04T10:12:07;101480.47;;;-4.14;100.00
19600;BME280;9947;57.722;12.012;2023-12-04T10:15:03;101485.75;;;-4.16;100.00
19600;BME280;9947;57.722;12.012;2023-12-04T10:17:34;101473.38;;;-4.05;100.00
19600;BME280;9947;57.722;12.012;2023-12-04T10:20:08;101475.91;;;-3.92;100.00
19600;BME280;9947;57.722;12.012;2023-12-04T10:22:55;101469.78;;;-3.94;100.00
19600;BME280;9947;57.722;12.012;2023-12-04T10:25:29;101475.84;;;-3.76;100.00
19600;BME280;9947;57.722;12.012;2023-12-04T10:28:09;101467.00;;;-3.75;100.00
19600;BME280;9947;57.722;12.012;2023-12-04T10:33:08;101462.69;;;-3.86;100.00
19600;BME280;9947;57.722;12.012;2023-12-04T10:35:39;101456.56;;;-3.96;100.00
19600;BME280;9947;57.722;12.012;2023-12-04T10:38:10;101462.69;;;-3.83;100.00
19600;BME280;9947;57.722;12.012;2023-12-04T10:43:15;101463.41;;;-3.60;100.00
19600;BME280;9947;57.722;12.012;2023-12-04T10:45:53;101463.50;;;-3.75;100.00
19600;BME280;9947;57.722;12.012;2023-12-04T10:48:24;101459.94;;;-3.69;100.00
19600;BME280;9947;57.722;12.012;2023-12-04T10:50:55;101460.78;;;-3.66;100.00
19600;BME280;9947;57.722;12.012;2023-12-04T10:53:23;101460.78;;;-3.66;100.00
19600;BME280;9947;57.722;12.012;2023-12-04T10:55:58;101454.72;;;-3.77;100.00
19600;BME280;9947;57.722;12.012;2023-12-04T10:58:28;101461.63;;;-3.56;100.00
19600;BME280;9947;57.722;12.012;2023-12-04T11:00:58;101456.38;;;-3.65;100.00
19600;BME280;9947;57.722;12.012;2023-12-04T11:03:34;101462.53;;;-3.62;100.00
19600;BME280;9947;57.722;12.012;2023-12-04T11:06:05;101461.66;;;-3.59;100.00
19600;BME280;9947;57.722;12.012;2023-12-04T11:08:52;101465.09;;;-3.53;100.00
19600;BME280;9947;57.722;12.012;2023-12-04T11:11:35;101470.44;;;-3.57;100.00
19600;BME280;9947;57.722;12.012;2023-12-04T11:14:05;101467.69;;;-3.47;100.00
19600;BME280;9947;57.722;12.012;2023-12-04T11:19:11;101465.97;;;-3.52;100.00
19600;BME280;9947;57.722;12.012;2023-12-04T11:24:09;101463.25;;;-3.37;100.00
19600;BME280;9947;57.722;12.012;2023-12-04T11:26:39;101463.94;;;-3.18;100.00
19600;BME280;9947;57.722;12.012;2023-12-04T11:29:08;101459.50;;;-3.12;100.00
19600;BME280;9947;57.722;12.012;2023-12-04T11:31:41;101451.66;;;-3.25;100.00
19600;BME280;9947;57.722;12.012;2023-12-04T11:34:20;101459.44;;;-3.05;100.00
19600;BME280;9947;57.722;12.012;2023-12-04T11:36:47;101450.00;;;-3.35;100.00
19600;BME280;9947;57.722;12.012;2023-12-04T11:39:14;101456.84;;;-3.13;100.00
19600;BME280;9947;57.722;12.012;2023-12-04T11:41:42;101454.34;;;-3.28;100.00
19600;BME280;9947;57.722;12.012;2023-12-04T11:44:12;101456.00;;;-3.17;100.00
19600;BME280;9947;57.722;12.012;2023-12-04T11:46:55;101452.59;;;-3.29;100.00
19600;BME280;9947;57.722;12.012;2023-12-04T11:49:39;101459.50;;;-3.12;100.00
19600;BME280;9947;57.722;12.012;2023-12-04T11:52:07;101451.66;;;-3.24;100.00
19600;BME280;9947;57.722;12.012;2023-12-04T11:57:20;101446.28;;;-3.15;100.00
19600;BME280;9947;57.722;12.012;2023-12-04T11:59:48;101457.78;;;-3.19;100.00
19600;BME280;9947;57.722;12.012;2023-12-04T12:02:16;101451.56;;;-3.16;100.00
19600;BME280;9947;57.722;12.012;2023-12-04T12:04:45;101451.47;;;-3.02;100.00
19600;BME280;9947;57.722;12.012;2023-12-04T12:07:13;101450.66;;;-3.11;100.00
19600;BME280;9947;57.722;12.012;2023-12-04T12:12:07;101450.69;;;-3.15;100.00
19600;BME280;9947;57.722;12.012;2023-12-04T12:17:03;101455.00;;;-3.03;100.00
19600;BME280;9947;57.722;12.012;2023-12-04T12:19:30;101450.53;;;-2.97;100.00
19600;BME280;9947;57.722;12.012;2023-12-04T12:21:59;101442.47;;;-2.85;100.00
19600;BME280;9947;57.722;12.012;2023-12-04T12:24:28;101438.78;;;-2.71;100.00
19600;BME280;9947;57.722;12.012;2023-12-04T12:26:57;101436.13;;;-2.71;100.00
19600;BME280;9947;57.722;12.012;2023-12-04T12:29:27;101421.91;;;-2.63;100.00
19600;BME280;9947;57.722;12.012;2023-12-04T12:31:54;101421.75;;;-2.47;100.00
19600;BME280;9947;57.722;12.012;2023-12-04T12:34:21;101413.22;;;-2.72;100.00
19600;BME280;9947;57.722;12.012;2023-12-04T12:36:48;101412.31;;;-2.71;100.00
19600;BME280;9947;57.722;12.012;2023-12-04T12:39:22;101417.78;;;-2.87;100.00
19600;BME280;9947;57.722;12.012;2023-12-04T12:41:50;101417.78;;;-2.87;100.00
19600;BME280;9947;57.722;12.012;2023-12-04T12:44:18;101424.59;;;-2.64;100.00
19600;BME280;9947;57.722;12.012;2023-12-04T12:46:47;101414.03;;;-2.67;100.00
19600;BME280;9947;57.722;12.012;2023-12-04T12:49:17;101421.16;;;-2.72;100.00
19600;BME280;9947;57.722;12.012;2023-12-04T12:51:45;101421.13;;;-2.71;100.00
19600;BME280;9947;57.722;12.012;2023-12-04T12:54:12;101425.41;;;-2.61;100.00
19600;BME280;9947;57.722;12.012;2023-12-04T12:56:47;101427.38;;;-2.75;100.00
19600;BME280;9947;57.722;12.012;2023-12-04T12:59:15;101437.84;;;-2.67;100.00
19600;BME280;9947;57.722;12.012;2023-12-04T13:01:43;101431.41;;;-2.43;100.00
19600;BME280;9947;57.722;12.012;2023-12-04T13:04:13;101426.47;;;-2.74;100.00
19600;BME280;9947;57.722;12.012;2023-12-04T13:09:07;101428.00;;;-2.53;100.00
19600;BME280;9947;57.722;12.012;2023-12-04T13:11:51;101426.38;;;-2.66;100.00
19600;BME280;9947;57.722;12.012;2023-12-04T13:14:19;101433.44;;;-2.68;100.00
19600;BME280;9947;57.722;12.012;2023-12-04T13:16:53;101429.78;;;-2.55;100.00
19600;BME280;9947;57.722;12.012;2023-12-04T13:19:21;101427.97;;;-2.52;100.00
19600;BME280;9947;57.722;12.012;2023-12-04T13:21:50;101419.16;;;-2.52;100.00
19600;BME280;9947;57.722;12.012;2023-12-04T13:24:17;101426.34;;;-2.63;100.00
19600;BME280;9947;57.722;12.012;2023-12-04T13:29:11;101416.53;;;-2.54;100.00
19600;BME280;9947;57.722;12.012;2023-12-04T13:34:15;101422.78;;;-2.62;100.00
19600;BME280;9947;57.722;12.012;2023-12-04T13:36:44;101415.63;;;-2.53;100.00
19600;BME280;9947;57.722;12.012;2023-12-04T13:39:16;101419.38;;;-2.70;100.00
19600;BME280;9947;57.722;12.012;2023-12-04T13:41:52;101422.88;;;-2.68;100.00